Aeroporto :
LOGIN :

Iscrizione | Disclaimer

   EN    FR    IT 

 










Sommario :    VFR   VFR Marginale   IFR   IFR Intensivo   IFR Molto Intensivo
Visibilità : 
Base nubi : 
>= 8 km
>= 3000ft
5 / 8 km
1000 / 3000 ft
1500m / 5 km
500 / 1000 ft
800 / 1500m
200 / 500 ft
< 800m
< 200 ft
Simboli :   Temporali  Nebbia  Neve Forte  Precipitazioni Forti  Vento > 20 kt
SIGMETs :   Varie  Temporali  Ghiacco  Turbolenza  Onda orograficha  Ceneri Vulcaniche






- Altitudine del aeroporto : 607 ft
- Codice IATA : BCM


LRBC - Bacău

ULTIMO METAR :
  • 271030Z 34017KT 9999 SCT014 BKN029 04/02 Q1002 R16/210295

METARs OBSOLETI :
  • 271000Z 34014KT 9999 SCT013 BKN026 BKN042 04/02 Q1002 R16/19//95
  • 270930Z 33015KT 9999 SCT015 BKN024 04/02 Q1002 R16/19//95
  • 270900Z 34013KT 9999 -RA SCT015 OVC027 03/03 Q1002 R16/19//95
  • 270830Z 33013KT 9999 -RA FEW010 BKN022 OVC027 03/02 Q1001 R16/19//95
  • 270800Z 34012KT 7000 -RASN SCT008 BKN011 02/02 Q1001 R16/19//95

TAF TAF LRBC
Valido dal 27 a 09 ore il 27 a 18 ore UTC


270800Z 2709/2718 34016KT 9999 BKN035
TEMPO 2709/2714 3000 RA RASN BKN005 BKN035



MetMap, La meteo Aeronautica in un colpo d'occhio ! - Copyright ORBIFLY Dicembre 2007 - Disclaimer

ORBIFLY MET'MAP TEAM :

Programmazione e sviluppo : Alexandra Zaïnal
Concezione : Baudouin d'Aumeries
Aiuto per la programmazione : Marc-Olivier Méhu
Supporto tecnico e logistico : Manuel Goepfert
Aiuto per la traduzione : Arnaldo La Scala

Contatto : metmap@orbifly.com




FONTI E CREDITI :

   NOAA